Hunt Field Lander US
ICAO: KLND
IATA: LND
Category: Medium
Scheduled Services: No

Elevation: 5586 ft
TransAlt. 18000 ft.

Airport Communications:
ASOS:118.15
CTAF/UNICOM:122.8

KLND Zoom In..

If you have problems with the map follow the link
https://www.worldairports.se/pages/airport.php?
ICAO=KLND

Runways:

(A) RW 03 length 5007 ft width 100 ft
---- / hdg 36

(B) RW 21 length 5007 ft width 100 ft
---- / hdg 216

Location; KLND
Day. 22 / Time. 12.53 Zulu
* Altimeter: 29.80
* Temperature: -03° c. -26.6°f.
* Wind from: 230° Speed 04 kn.
Dewpoint: -07° c.
Visibility: 10 Statute Miles.
Clouds: Scattered 8000 ft.

KLND 221253Z AUTO 23004KT 10SM SCT080 M03/M07 A2980 RMK AO2 SLP114 T10331072


Wind From 230°
Speed 04 kn.

 
 
jpsmedia worldairports.se 2020   terms of use